createdAt,value
2022-12-16T00:02:23.141Z,84.76
2022-12-16T00:05:07.943Z,85.19
2022-12-16T00:07:51.776Z,84.40
2022-12-16T00:10:53.122Z,83.69
2022-12-16T00:13:41.544Z,85.65
2022-12-16T00:16:25.362Z,86.87
2022-12-16T00:19:09.287Z,85.04
2022-12-16T00:21:52.991Z,84.72
2022-12-16T00:24:38.718Z,84.86
2022-12-16T00:27:22.480Z,84.33
2022-12-16T00:30:09.016Z,84.83
2022-12-16T00:32:52.735Z,84.48
2022-12-16T00:35:40.522Z,84.90
2022-12-16T00:38:28.278Z,84.11
2022-12-16T00:41:12.060Z,84.11
2022-12-16T00:43:55.760Z,84.08
2022-12-16T00:46:41.080Z,84.57
2022-12-16T00:49:24.871Z,84.06
2022-12-16T00:52:08.656Z,85.44
2022-12-16T00:54:52.457Z,84.20
2022-12-16T00:57:36.226Z,84.72
2022-12-16T01:00:20.532Z,84.48
2022-12-16T01:03:05.952Z,84.52
2022-12-16T01:05:50.070Z,85.52
2022-12-16T01:08:34.314Z,85.25
2022-12-16T01:11:18.972Z,85.27
2022-12-16T01:14:02.690Z,85.53
2022-12-16T01:16:46.417Z,85.20
2022-12-16T01:19:31.778Z,84.89
2022-12-16T01:22:15.573Z,84.91
2022-12-16T01:24:59.476Z,84.68
2022-12-16T01:27:43.157Z,84.83
2022-12-16T01:30:26.999Z,84.53
2022-12-16T01:33:11.950Z,83.22
2022-12-16T01:36:02.095Z,83.45
2022-12-16T01:38:46.194Z,83.08
2022-12-16T01:41:30.081Z,82.50
2022-12-16T01:44:16.129Z,82.67
2022-12-16T01:47:04.326Z,82.36
2022-12-16T01:49:53.719Z,81.22
2022-12-16T01:52:46.259Z,82.97
2022-12-16T01:55:33.746Z,82.08
2022-12-16T01:58:22.455Z,81.35
2022-12-16T02:01:06.856Z,82.20
2022-12-16T02:03:51.757Z,82.14
2022-12-16T02:06:36.201Z,82.90
2022-12-16T02:09:21.904Z,84.03
2022-12-16T02:12:25.580Z,83.48
2022-12-16T02:15:22.568Z,83.74
2022-12-16T02:18:17.717Z,84.22
2022-12-16T02:21:29.233Z,83.82
2022-12-16T02:24:45.155Z,82.81
2022-12-16T02:27:58.253Z,82.65
2022-12-16T02:30:57.920Z,82.62
2022-12-16T02:33:50.620Z,83.39
2022-12-16T02:36:47.024Z,83.57
2022-12-16T02:39:38.677Z,83.51
2022-12-16T02:42:31.020Z,84.23
2022-12-16T02:45:18.353Z,83.92
2022-12-16T02:48:03.533Z,84.00
2022-12-16T02:50:51.227Z,83.60
2022-12-16T02:53:40.225Z,83.48
2022-12-16T02:56:32.444Z,84.17
2022-12-16T02:59:23.494Z,84.58
2022-12-16T03:02:14.326Z,83.88
2022-12-16T03:05:07.601Z,83.91
2022-12-16T03:07:53.785Z,84.17
2022-12-16T03:10:42.566Z,83.78
2022-12-16T03:13:29.130Z,84.52
2022-12-16T03:16:17.703Z,83.98
2022-12-16T03:19:06.866Z,83.62
2022-12-16T03:21:57.026Z,83.68
2022-12-16T03:24:41.957Z,83.88
2022-12-16T03:27:30.522Z,83.64
2022-12-16T03:30:18.650Z,83.48
2022-12-16T03:33:05.517Z,83.13
2022-12-16T03:35:53.282Z,83.88
2022-12-16T03:38:40.208Z,83.29
2022-12-16T03:41:24.882Z,83.71
2022-12-16T03:44:09.473Z,83.54
2022-12-16T03:46:53.828Z,83.47
2022-12-16T03:49:37.701Z,83.32
2022-12-16T03:52:21.562Z,84.41
2022-12-16T03:55:07.116Z,84.14
2022-12-16T03:57:51.060Z,85.21
2022-12-16T04:00:34.918Z,85.12
2022-12-16T04:03:18.915Z,84.95
2022-12-16T04:06:03.006Z,84.81
2022-12-16T04:08:46.973Z,86.03
2022-12-16T04:12:03.942Z,86.95
2022-12-16T04:15:04.257Z,87.26
2022-12-16T04:18:05.482Z,87.14
2022-12-16T04:21:10.885Z,87.14
2022-12-16T04:24:15.898Z,86.52
2022-12-16T04:27:20.697Z,87.60
2022-12-16T04:30:20.240Z,89.73
2022-12-16T04:33:24.511Z,89.02
2022-12-16T04:36:26.396Z,88.74
2022-12-16T04:39:27.742Z,88.53
2022-12-16T04:42:30.563Z,88.17
2022-12-16T04:45:32.185Z,89.03
2022-12-16T04:48:33.542Z,89.49
2022-12-16T04:51:34.523Z,88.40
2022-12-16T04:54:35.623Z,87.89
2022-12-16T04:57:38.237Z,88.07
2022-12-16T05:00:39.917Z,88.23
2022-12-16T05:03:41.663Z,87.60
2022-12-16T05:06:43.220Z,89.71
2022-12-16T05:09:44.751Z,88.15
2022-12-16T05:12:47.281Z,87.93
2022-12-16T05:15:48.315Z,87.16
2022-12-16T05:18:49.277Z,87.69
2022-12-16T05:21:50.725Z,88.00
2022-12-16T05:24:53.161Z,87.81
2022-12-16T05:27:56.962Z,86.15
2022-12-16T05:30:58.480Z,86.43
2022-12-16T05:34:00.150Z,85.65
2022-12-16T05:37:01.651Z,84.66
2022-12-16T05:40:03.230Z,85.52
2022-12-16T05:43:10.914Z,85.52
2022-12-16T05:46:16.723Z,85.51
2022-12-16T05:49:18.550Z,84.59
2022-12-16T05:52:19.872Z,84.82
2022-12-16T05:55:21.464Z,85.57
2022-12-16T05:58:24.157Z,85.45
2022-12-16T06:01:25.607Z,85.41
2022-12-16T06:04:27.347Z,86.48
2022-12-16T06:07:28.947Z,85.08
2022-12-16T06:10:30.504Z,85.71
2022-12-16T06:13:33.492Z,85.90
2022-12-16T06:16:35.631Z,86.84
2022-12-16T06:19:37.003Z,85.75
2022-12-16T06:22:41.881Z,85.92
2022-12-16T06:25:48.310Z,85.32
2022-12-16T06:28:50.994Z,85.02
2022-12-16T06:31:52.233Z,84.50
2022-12-16T06:34:53.394Z,85.05
2022-12-16T06:37:53.623Z,84.05
2022-12-16T06:40:55.119Z,84.84
2022-12-16T06:43:57.779Z,84.54
2022-12-16T06:46:59.091Z,83.90
2022-12-16T06:50:00.541Z,84.42
2022-12-16T06:53:01.897Z,83.64
2022-12-16T06:56:03.324Z,83.02
2022-12-16T06:59:06.060Z,84.25
2022-12-16T07:02:07.088Z,83.82
2022-12-16T07:05:08.688Z,84.71
2022-12-16T07:08:10.235Z,83.67
2022-12-16T07:11:16.527Z,84.01
2022-12-16T07:14:19.796Z,83.11
2022-12-16T07:17:21.004Z,84.35
2022-12-16T07:20:22.888Z,83.79
2022-12-16T07:23:24.302Z,82.51
2022-12-16T07:26:25.688Z,82.45
2022-12-16T07:29:28.095Z,82.61
2022-12-16T07:32:29.180Z,81.83
2022-12-16T07:35:30.150Z,83.10
2022-12-16T07:38:31.553Z,82.89
2022-12-16T07:41:32.823Z,82.25
2022-12-16T07:44:35.455Z,82.89
2022-12-16T07:47:36.899Z,83.02
2022-12-16T07:50:38.472Z,83.22
2022-12-16T07:53:40.429Z,83.88
2022-12-16T07:56:42.013Z,84.26
2022-12-16T07:59:44.594Z,84.71
2022-12-16T08:02:46.004Z,83.98
2022-12-16T08:05:47.617Z,84.46
2022-12-16T08:08:48.591Z,85.83
2022-12-16T08:11:49.864Z,84.27
2022-12-16T08:14:58.148Z,83.46
2022-12-16T08:18:01.458Z,84.64
2022-12-16T08:21:02.896Z,85.21
2022-12-16T08:24:04.302Z,85.02
2022-12-16T08:27:05.736Z,85.06
2022-12-16T08:30:08.113Z,84.58
2022-12-16T08:33:18.540Z,84.90
2022-12-16T08:36:20.437Z,85.62
2022-12-16T08:39:21.895Z,84.53
2022-12-16T08:42:23.207Z,85.27
2022-12-16T08:45:26.381Z,85.56
2022-12-16T08:48:27.861Z,84.19
2022-12-16T08:51:29.117Z,83.73
2022-12-16T08:54:30.507Z,84.89
2022-12-16T08:57:31.986Z,84.47
2022-12-16T09:00:35.307Z,86.20
2022-12-16T09:03:36.551Z,85.08
2022-12-16T09:06:40.672Z,84.66
2022-12-16T09:09:42.375Z,85.68
2022-12-16T09:12:43.789Z,84.65
2022-12-16T09:15:46.302Z,84.52
2022-12-16T09:18:47.670Z,86.49
2022-12-16T09:21:49.101Z,86.58
2022-12-16T09:24:50.489Z,86.40
2022-12-16T09:27:53.424Z,84.52
2022-12-16T09:30:55.853Z,84.10
2022-12-16T09:33:57.223Z,82.88
2022-12-16T09:36:58.418Z,81.68
2022-12-16T09:40:00.072Z,82.37
2022-12-16T09:43:09.671Z,82.63
2022-12-16T09:46:19.010Z,81.22
2022-12-16T09:49:32.568Z,80.59
2022-12-16T09:52:38.146Z,80.95
2022-12-16T09:55:44.515Z,81.82
2022-12-16T09:58:49.359Z,81.79
2022-12-16T10:01:56.090Z,80.18
2022-12-16T10:04:57.614Z,79.12
2022-12-16T10:08:05.584Z,78.86
2022-12-16T10:11:16.573Z,79.80
2022-12-16T10:14:23.644Z,80.01
2022-12-16T10:17:31.408Z,79.12
2022-12-16T10:20:43.335Z,78.71
2022-12-16T10:23:50.365Z,78.93
2022-12-16T10:27:01.058Z,77.59
2022-12-16T10:30:05.205Z,76.82
2022-12-16T10:33:09.369Z,78.35
2022-12-16T10:36:11.719Z,76.98
2022-12-16T10:39:16.595Z,77.10
2022-12-16T10:42:21.089Z,76.65
2022-12-16T10:45:23.494Z,77.50
2022-12-16T10:48:28.646Z,76.85
2022-12-16T10:51:33.002Z,76.52
2022-12-16T10:54:46.577Z,75.10
2022-12-16T10:57:59.567Z,75.43
2022-12-16T11:01:04.055Z,74.40
2022-12-16T11:04:06.818Z,74.06
2022-12-16T11:07:08.161Z,75.16
2022-12-16T11:10:10.530Z,75.85
2022-12-16T11:13:26.006Z,74.72
2022-12-16T11:16:31.049Z,74.00
2022-12-16T11:19:40.987Z,73.99
2022-12-16T11:22:42.841Z,75.09
2022-12-16T11:25:44.211Z,76.20
2022-12-16T11:28:45.662Z,77.22
2022-12-16T11:31:47.239Z,77.74
2022-12-16T11:34:50.931Z,77.02
2022-12-16T11:37:53.793Z,77.80
2022-12-16T11:40:56.744Z,77.08
2022-12-16T11:44:01.331Z,76.79
2022-12-16T11:47:02.937Z,76.54
2022-12-16T11:50:05.307Z,76.67
2022-12-16T11:53:14.588Z,77.23
2022-12-16T11:56:16.611Z,76.55
2022-12-16T11:59:22.418Z,77.59
2022-12-16T12:02:31.867Z,77.55
2022-12-16T12:05:34.960Z,77.75
2022-12-16T12:08:46.283Z,77.95
2022-12-16T12:11:50.393Z,76.77
2022-12-16T12:14:58.071Z,76.70
2022-12-16T12:18:06.648Z,77.37
2022-12-16T12:21:18.767Z,77.07
2022-12-16T12:24:28.059Z,76.54
2022-12-16T12:27:40.407Z,75.25
2022-12-16T12:30:42.742Z,76.37
2022-12-16T12:33:56.166Z,75.34
2022-12-16T12:37:07.305Z,75.21
2022-12-16T12:40:16.383Z,74.84
2022-12-16T12:43:19.761Z,74.66
2022-12-16T12:46:28.852Z,74.26
2022-12-16T12:49:38.443Z,75.26
2022-12-16T12:52:55.648Z,74.11
2022-12-16T12:56:02.010Z,74.11
2022-12-16T12:59:05.246Z,73.87
2022-12-16T13:02:09.350Z,73.95
2022-12-16T13:05:11.325Z,73.64
2022-12-16T13:08:13.688Z,73.56
2022-12-16T13:11:34.984Z,73.81
2022-12-16T13:15:20.791Z,73.51
2022-12-16T13:18:39.351Z,73.63
2022-12-16T13:22:03.242Z,73.62
2022-12-16T13:25:09.326Z,74.39
2022-12-16T13:28:15.217Z,74.39
2022-12-16T13:31:25.897Z,74.48
2022-12-16T13:34:46.054Z,74.57
2022-12-16T13:37:47.530Z,74.46
2022-12-16T13:41:07.631Z,74.71
2022-12-16T13:44:10.976Z,74.67
2022-12-16T13:47:13.605Z,74.28
2022-12-16T13:50:26.537Z,74.17
2022-12-16T13:53:30.267Z,74.49
2022-12-16T13:56:34.286Z,75.12
2022-12-16T13:59:39.443Z,76.16
2022-12-16T14:02:49.824Z,76.15
2022-12-16T14:05:56.000Z,75.93
2022-12-16T14:09:01.102Z,76.27
2022-12-16T14:12:08.650Z,76.94
2022-12-16T14:15:16.236Z,76.92
2022-12-16T14:18:24.797Z,77.42
2022-12-16T14:21:39.625Z,77.77
2022-12-16T14:24:44.484Z,78.18
2022-12-16T14:28:05.979Z,78.85
2022-12-16T14:31:07.365Z,79.36
2022-12-16T14:34:11.969Z,80.16
2022-12-16T14:37:13.404Z,79.98
2022-12-16T14:40:14.713Z,80.36
2022-12-16T14:43:17.111Z,80.84
2022-12-16T14:46:19.014Z,80.43
2022-12-16T14:49:25.933Z,81.33
2022-12-16T14:52:46.349Z,81.89
2022-12-16T14:55:50.173Z,81.17
2022-12-16T14:58:52.562Z,80.97
2022-12-16T15:01:54.161Z,81.85
2022-12-16T15:05:10.237Z,81.59
2022-12-16T15:08:11.607Z,82.12
2022-12-16T15:11:13.264Z,82.10
2022-12-16T15:14:19.041Z,82.21
2022-12-16T15:17:20.657Z,82.42
2022-12-16T15:20:22.820Z,82.42
2022-12-16T15:23:34.959Z,81.14
2022-12-16T15:26:37.733Z,82.14
2022-12-16T15:29:53.184Z,82.70
2022-12-16T15:32:54.719Z,83.11
2022-12-16T15:35:57.803Z,83.08
2022-12-16T15:38:59.687Z,83.19
2022-12-16T15:42:20.513Z,85.48
2022-12-16T15:45:24.038Z,84.34
2022-12-16T15:48:31.592Z,84.37
2022-12-16T15:51:47.938Z,84.91
2022-12-16T15:54:49.471Z,85.82
2022-12-16T15:57:52.499Z,86.13
2022-12-16T16:00:54.892Z,85.60
2022-12-16T16:03:57.217Z,85.79
2022-12-16T16:07:04.746Z,86.53
2022-12-16T16:10:06.367Z,85.93
2022-12-16T16:13:03.973Z,85.99
2022-12-16T16:16:06.693Z,85.99
2022-12-16T16:19:08.132Z,86.05
2022-12-16T16:22:09.398Z,86.23
2022-12-16T16:25:10.650Z,86.12
2022-12-16T16:28:11.729Z,86.43
2022-12-16T16:31:14.431Z,86.77
2022-12-16T16:34:16.055Z,86.90
2022-12-16T16:37:17.490Z,87.68
2022-12-16T16:40:19.478Z,89.00
2022-12-16T16:43:20.258Z,92.19
2022-12-16T16:46:33.092Z,89.96
2022-12-16T16:49:40.683Z,92.94
2022-12-16T16:52:44.081Z,90.95
2022-12-16T16:55:45.180Z,89.04
2022-12-16T16:58:50.309Z,88.13
2022-12-16T17:01:52.937Z,88.04
2022-12-16T17:04:53.936Z,89.11
2022-12-16T17:07:55.535Z,89.34
2022-12-16T17:10:57.047Z,88.94
2022-12-16T17:13:57.982Z,89.16
2022-12-16T17:17:00.483Z,89.82
2022-12-16T17:20:01.618Z,89.92
2022-12-16T17:23:05.903Z,93.00
2022-12-16T17:26:07.372Z,92.86
2022-12-16T17:29:10.463Z,90.79
2022-12-16T17:32:12.917Z,90.12
2022-12-16T17:35:14.448Z,89.99
2022-12-16T17:38:15.553Z,90.11
2022-12-16T17:41:16.958Z,90.30
2022-12-16T17:44:29.949Z,89.43
2022-12-16T17:47:32.845Z,92.13
2022-12-16T17:50:34.260Z,90.27
2022-12-16T17:53:36.133Z,89.96
2022-12-16T17:56:37.797Z,90.45
2022-12-16T17:59:39.232Z,90.34
2022-12-16T18:02:41.689Z,89.52
2022-12-16T18:05:44.878Z,90.10
2022-12-16T18:08:46.443Z,91.38
2022-12-16T18:11:47.263Z,91.44
2022-12-16T18:14:48.766Z,91.54
2022-12-16T18:17:51.538Z,91.30
2022-12-16T18:20:52.896Z,90.75
2022-12-16T18:23:54.435Z,91.75
2022-12-16T18:26:55.755Z,91.25
2022-12-16T18:29:57.031Z,93.69
2022-12-16T18:32:59.573Z,91.30
2022-12-16T18:36:01.067Z,93.27
2022-12-16T18:39:02.480Z,90.74
2022-12-16T18:42:05.284Z,90.46
2022-12-16T18:45:07.764Z,91.76
2022-12-16T18:48:10.453Z,89.97
2022-12-16T18:51:12.287Z,90.64
2022-12-16T18:54:13.126Z,91.86
2022-12-16T18:57:14.480Z,93.51
2022-12-16T19:00:15.376Z,92.28
2022-12-16T19:03:18.009Z,91.87
2022-12-16T19:06:19.369Z,90.94
2022-12-16T19:09:20.679Z,90.87
2022-12-16T19:12:21.469Z,90.25
2022-12-16T19:15:22.749Z,91.09
2022-12-16T19:18:25.252Z,89.74
2022-12-16T19:21:27.582Z,91.41
2022-12-16T19:24:28.895Z,90.31
2022-12-16T19:27:29.741Z,92.68
2022-12-16T19:30:30.996Z,94.54
2022-12-16T19:33:33.545Z,91.90
2022-12-16T19:36:34.574Z,93.59
2022-12-16T19:39:36.156Z,93.63
2022-12-16T19:42:37.553Z,93.16
2022-12-16T19:45:38.978Z,92.90
2022-12-16T19:48:41.461Z,94.17
2022-12-16T19:51:43.186Z,94.10
2022-12-16T19:54:58.682Z,93.34
2022-12-16T19:57:59.763Z,93.34
2022-12-16T20:01:00.827Z,93.68
2022-12-16T20:04:03.284Z,93.45
2022-12-16T20:07:04.764Z,93.81
2022-12-16T20:10:05.593Z,93.50
2022-12-16T20:13:06.384Z,93.12
2022-12-16T20:16:07.629Z,92.50
2022-12-16T20:19:10.096Z,93.28
2022-12-16T20:22:14.535Z,93.05
2022-12-16T20:25:19.977Z,92.97
2022-12-16T20:31:42.730Z,92.33
2022-12-16T20:34:45.010Z,92.25
2022-12-16T20:37:56.184Z,93.91
2022-12-16T20:40:56.404Z,95.32
2022-12-16T20:43:57.763Z,94.69
2022-12-16T20:46:59.223Z,94.79
2022-12-16T20:50:01.824Z,95.62
2022-12-16T20:53:04.873Z,94.94
2022-12-16T20:56:06.232Z,94.27
2022-12-16T20:59:07.800Z,92.66
2022-12-16T21:02:30.345Z,92.68
2022-12-16T21:05:32.707Z,92.11
2022-12-16T21:08:33.657Z,91.59
2022-12-16T21:11:35.336Z,90.99
2022-12-16T21:14:36.616Z,91.63
2022-12-16T21:14:42.429Z,93.62
2022-12-16T21:17:38.040Z,92.56
2022-12-16T21:20:40.573Z,91.02
2022-12-16T21:23:42.739Z,91.61
2022-12-16T21:26:44.220Z,90.88
2022-12-16T21:29:45.136Z,91.88
2022-12-16T21:32:46.548Z,92.13
2022-12-16T21:35:49.030Z,93.09
2022-12-16T21:38:50.311Z,94.00
2022-12-16T21:41:51.641Z,94.15
2022-12-16T21:44:53.144Z,93.30
2022-12-16T21:47:57.937Z,93.41
2022-12-16T21:51:00.522Z,92.62
2022-12-16T21:54:08.270Z,94.01
2022-12-16T21:57:11.554Z,92.85
2022-12-16T22:00:12.954Z,91.91
2022-12-16T22:03:14.488Z,95.06
2022-12-16T22:06:18.251Z,93.42
2022-12-16T22:09:19.209Z,94.06
2022-12-16T22:12:20.545Z,92.10
2022-12-16T22:15:21.966Z,94.05
2022-12-16T22:18:23.413Z,93.05
2022-12-16T22:21:26.054Z,92.63
2022-12-16T22:24:26.657Z,93.53
2022-12-16T22:27:27.937Z,92.84
2022-12-16T22:30:30.100Z,94.04
2022-12-16T22:33:31.533Z,96.64
2022-12-16T22:36:34.219Z,95.94
2022-12-16T22:39:38.799Z,93.65
2022-12-16T22:42:42.940Z,93.08
2022-12-16T22:45:43.964Z,93.84
2022-12-16T22:48:45.547Z,93.11
2022-12-16T22:51:48.178Z,92.60
2022-12-16T22:54:49.317Z,92.49
2022-12-16T22:57:53.391Z,93.14
2022-12-16T23:00:56.404Z,92.78
2022-12-16T23:03:58.028Z,93.05
2022-12-16T23:07:00.421Z,93.17
2022-12-16T23:10:01.771Z,93.76
2022-12-16T23:13:04.194Z,93.35
2022-12-16T23:16:05.901Z,93.33
2022-12-16T23:19:06.770Z,93.80
2022-12-16T23:22:09.487Z,93.17
2022-12-16T23:25:11.293Z,93.34
2022-12-16T23:28:12.562Z,93.80
2022-12-16T23:31:14.508Z,92.45
2022-12-16T23:34:15.840Z,95.15
2022-12-16T23:37:18.336Z,94.34
2022-12-16T23:40:19.848Z,95.37
2022-12-16T23:43:21.043Z,93.77
2022-12-16T23:46:22.514Z,93.37
2022-12-16T23:49:24.024Z,93.64
2022-12-16T23:52:26.747Z,93.13
2022-12-16T23:55:28.196Z,93.04
2022-12-16T23:58:29.696Z,93.10
